sensor_id;sensor_type;location;lat;lon;timestamp;pressure;altitude;pressure_sealevel;temperature;humidity
37610;BME280;23457;51.966;8.230;2022-07-12T00:00:05;101757.81;;;16.47;97.58
37610;BME280;23457;51.966;8.230;2022-07-12T00:02:32;101766.56;;;16.49;97.00
37610;BME280;23457;51.966;8.230;2022-07-12T00:04:59;101764.91;;;16.57;96.52
37610;BME280;23457;51.966;8.230;2022-07-12T00:07:25;101764.81;;;16.48;96.97
37610;BME280;23457;51.966;8.230;2022-07-12T00:09:52;101765.69;;;16.47;96.37
37610;BME280;23457;51.966;8.230;2022-07-12T00:12:18;101760.31;;;16.30;96.81
37610;BME280;23457;51.966;8.230;2022-07-12T00:14:45;101766.41;;;16.29;97.51
37610;BME280;23457;51.966;8.230;2022-07-12T00:17:11;101762.94;;;16.35;97.18
37610;BME280;23457;51.966;8.230;2022-07-12T00:19:38;101770.75;;;16.26;97.10
37610;BME280;23457;51.966;8.230;2022-07-12T00:22:04;101759.19;;;16.08;97.19
37610;BME280;23457;51.966;8.230;2022-07-12T00:24:31;101755.78;;;16.16;97.22
37610;BME280;23457;51.966;8.230;2022-07-12T00:26:57;101763.69;;;16.22;97.33
37610;BME280;23457;51.966;8.230;2022-07-12T00:29:24;101756.56;;;16.08;97.52
37610;BME280;23457;51.966;8.230;2022-07-12T00:31:50;101755.75;;;16.12;97.51
37610;BME280;23457;51.966;8.230;2022-07-12T00:34:17;101748.84;;;16.22;95.94
37610;BME280;23457;51.966;8.230;2022-07-12T00:36:44;101755.75;;;16.12;96.60
37610;BME280;23457;51.966;8.230;2022-07-12T00:39:10;101759.78;;;15.80;99.41
37610;BME280;23457;51.966;8.230;2022-07-12T00:41:37;101755.47;;;15.85;98.93
37610;BME280;23457;51.966;8.230;2022-07-12T00:44:04;101751.94;;;15.83;99.01
37610;BME280;23457;51.966;8.230;2022-07-12T00:46:31;101741.56;;;15.92;98.37
37610;BME280;23457;51.966;8.230;2022-07-12T00:48:58;101739.78;;;15.88;98.13
37610;BME280;23457;51.966;8.230;2022-07-12T00:51:24;101758.97;;;15.87;98.09
37610;BME280;23457;51.966;8.230;2022-07-12T00:53:52;101755.47;;;15.85;98.50
37610;BME280;23457;51.966;8.230;2022-07-12T00:56:20;101750.84;;;15.61;99.07
37610;BME280;23457;51.966;8.230;2022-07-12T00:58:46;101755.13;;;15.55;100.00
37610;BME280;23457;51.966;8.230;2022-07-12T01:01:13;101751.75;;;15.65;100.00
37610;BME280;23457;51.966;8.230;2022-07-12T01:03:40;101755.38;;;15.76;98.84
37610;BME280;23457;51.966;8.230;2022-07-12T01:06:07;101758.78;;;15.67;98.83
37610;BME280;23457;51.966;8.230;2022-07-12T01:08:34;101760.44;;;15.61;98.64
37610;BME280;23457;51.966;8.230;2022-07-12T01:11:01;101746.41;;;15.56;98.90
37610;BME280;23457;51.966;8.230;2022-07-12T01:13:29;101755.00;;;15.49;99.01
37610;BME280;23457;51.966;8.230;2022-07-12T01:15:56;101750.81;;;15.60;98.01
37610;BME280;23457;51.966;8.230;2022-07-12T01:18:24;101749.72;;;15.46;99.04
37610;BME280;23457;51.966;8.230;2022-07-12T01:20:53;101759.34;;;15.44;99.21
37610;BME280;23457;51.966;8.230;2022-07-12T01:23:21;101755.88;;;15.48;98.79
37610;BME280;23457;51.966;8.230;2022-07-12T01:25:48;101749.66;;;15.39;99.11
37610;BME280;23457;51.966;8.230;2022-07-12T01:28:14;101742.75;;;15.48;99.19
37610;BME280;23457;51.966;8.230;2022-07-12T01:30:41;101723.56;;;15.49;99.14
37610;BME280;23457;51.966;8.230;2022-07-12T01:33:07;101733.34;;;15.60;98.38
37610;BME280;23457;51.966;8.230;2022-07-12T01:35:34;101729.88;;;15.61;97.62
37610;BME280;23457;51.966;8.230;2022-07-12T01:38:02;101729.13;;;15.70;97.10
37610;BME280;23457;51.966;8.230;2022-07-12T01:40:29;101717.81;;;15.77;96.89
37610;BME280;23457;51.966;8.230;2022-07-12T01:42:56;101722.94;;;15.66;96.77
37610;BME280;23457;51.966;8.230;2022-07-12T01:45:23;101728.81;;;15.49;97.69
37610;BME280;23457;51.966;8.230;2022-07-12T01:47:50;101725.22;;;15.39;98.97
37610;BME280;23457;51.966;8.230;2022-07-12T01:50:16;101728.75;;;15.46;98.47
37610;BME280;23457;51.966;8.230;2022-07-12T01:52:44;101723.44;;;15.38;98.75
37610;BME280;23457;51.966;8.230;2022-07-12T01:55:11;101732.34;;;15.51;98.33
37610;BME280;23457;51.966;8.230;2022-07-12T01:57:41;101725.19;;;15.37;98.50
37610;BME280;23457;51.966;8.230;2022-07-12T02:00:08;101726.94;;;15.38;98.90
37610;BME280;23457;51.966;8.230;2022-07-12T02:02:35;101724.28;;;15.32;98.83
37610;BME280;23457;51.966;8.230;2022-07-12T02:05:02;101727.00;;;15.41;98.38
37610;BME280;23457;51.966;8.230;2022-07-12T02:07:30;101735.50;;;15.24;99.23
37610;BME280;23457;51.966;8.230;2022-07-12T02:09:56;101732.03;;;15.26;99.41
37610;BME280;23457;51.966;8.230;2022-07-12T02:12:24;101738.25;;;15.36;99.44
37610;BME280;23457;51.966;8.230;2022-07-12T02:14:51;101737.47;;;15.41;99.18
37610;BME280;23457;51.966;8.230;2022-07-12T02:17:18;101728.75;;;15.46;98.90
37610;BME280;23457;51.966;8.230;2022-07-12T02:19:45;101732.03;;;15.26;99.99
37610;BME280;23457;51.966;8.230;2022-07-12T02:22:11;101737.19;;;15.19;100.00
37610;BME280;23457;51.966;8.230;2022-07-12T02:24:38;101744.38;;;15.36;100.00
37610;BME280;23457;51.966;8.230;2022-07-12T02:27:05;101741.00;;;15.44;100.00
37610;BME280;23457;51.966;8.230;2022-07-12T02:29:32;101736.63;;;15.44;99.85
37610;BME280;23457;51.966;8.230;2022-07-12T02:31:58;101753.06;;;15.32;100.00
37610;BME280;23457;51.966;8.230;2022-07-12T02:34:25;101747.84;;;15.35;100.00
37610;BME280;23457;51.966;8.230;2022-07-12T02:36:51;101745.28;;;15.38;100.00
37610;BME280;23457;51.966;8.230;2022-07-12T02:39:18;101747.09;;;15.46;100.00
37610;BME280;23457;51.966;8.230;2022-07-12T02:41:44;101748.72;;;15.34;100.00
37610;BME280;23457;51.966;8.230;2022-07-12T02:44:11;101742.75;;;15.48;100.00
37610;BME280;23457;51.966;8.230;2022-07-12T02:46:37;101736.53;;;15.38;100.00
37610;BME280;23457;51.966;8.230;2022-07-12T02:49:04;101748.53;;;15.21;100.00
37610;BME280;23457;51.966;8.230;2022-07-12T02:51:30;101750.84;;;14.98;100.00
37610;BME280;23457;51.966;8.230;2022-07-12T02:53:57;101756.06;;;14.98;100.00
37610;BME280;23457;51.966;8.230;2022-07-12T02:56:26;101750.88;;;15.01;100.00
37610;BME280;23457;51.966;8.230;2022-07-12T02:58:52;101754.47;;;15.09;100.00
37610;BME280;23457;51.966;8.230;2022-07-12T03:01:19;101747.25;;;14.91;100.00
37610;BME280;23457;51.966;8.230;2022-07-12T03:03:46;101768.41;;;15.05;100.00
37610;BME280;23457;51.966;8.230;2022-07-12T03:06:12;101773.66;;;15.05;100.00
37610;BME280;23457;51.966;8.230;2022-07-12T03:08:39;101771.72;;;14.92;100.00
37610;BME280;23457;51.966;8.230;2022-07-12T03:11:06;101772.75;;;15.03;100.00
37610;BME280;23457;51.966;8.230;2022-07-12T03:13:32;101780.53;;;15.00;100.00
37610;BME280;23457;51.966;8.230;2022-07-12T03:15:59;101770.81;;;14.91;100.00
37610;BME280;23457;51.966;8.230;2022-07-12T03:18:26;101773.53;;;14.99;100.00
37610;BME280;23457;51.966;8.230;2022-07-12T03:20:53;101773.78;;;15.14;100.00
37610;BME280;23457;51.966;8.230;2022-07-12T03:23:19;101773.00;;;15.20;100.00
37610;BME280;23457;51.966;8.230;2022-07-12T03:25:46;101774.72;;;15.19;100.00
37610;BME280;23457;51.966;8.230;2022-07-12T03:28:12;101775.66;;;15.24;100.00
37610;BME280;23457;51.966;8.230;2022-07-12T03:30:39;101775.84;;;15.39;100.00
37610;BME280;23457;51.966;8.230;2022-07-12T03:33:05;101765.28;;;15.33;100.00
37610;BME280;23457;51.966;8.230;2022-07-12T03:35:32;101766.88;;;15.22;100.00
37610;BME280;23457;51.966;8.230;2022-07-12T03:37:58;101776.38;;;15.14;100.00
37610;BME280;23457;51.966;8.230;2022-07-12T03:40:25;101779.88;;;15.15;100.00
37610;BME280;23457;51.966;8.230;2022-07-12T03:42:52;101779.69;;;15.01;100.00
37610;BME280;23457;51.966;8.230;2022-07-12T03:45:19;101769.25;;;15.02;100.00
37610;BME280;23457;51.966;8.230;2022-07-12T03:47:48;101766.69;;;15.07;100.00
37610;BME280;23457;51.966;8.230;2022-07-12T03:50:14;101769.47;;;15.21;100.00
37610;BME280;23457;51.966;8.230;2022-07-12T03:52:42;101770.25;;;15.14;100.00
37610;BME280;23457;51.966;8.230;2022-07-12T03:55:10;101770.19;;;15.09;100.00
37610;BME280;23457;51.966;8.230;2022-07-12T03:57:37;101778.94;;;15.11;100.00
37610;BME280;23457;51.966;8.230;2022-07-12T04:00:06;101777.16;;;15.05;100.00
37610;BME280;23457;51.966;8.230;2022-07-12T04:02:40;101784.25;;;15.14;100.00
37610;BME280;23457;51.966;8.230;2022-07-12T04:05:08;101780.63;;;15.07;100.00
37610;BME280;23457;51.966;8.230;2022-07-12T04:07:36;101785.91;;;15.09;100.00
37610;BME280;23457;51.966;8.230;2022-07-12T04:10:03;101788.50;;;15.09;100.00
37610;BME280;23457;51.966;8.230;2022-07-12T04:12:30;101782.25;;;14.98;100.00
37610;BME280;23457;51.966;8.230;2022-07-12T04:14:57;101791.66;;;14.85;100.00
37610;BME280;23457;51.966;8.230;2022-07-12T04:17:24;101796.97;;;14.90;100.00
37610;BME280;23457;51.966;8.230;2022-07-12T04:19:50;101787.22;;;14.80;100.00
37610;BME280;23457;51.966;8.230;2022-07-12T04:22:17;101782.91;;;14.85;100.00
37610;BME280;23457;51.966;8.230;2022-07-12T04:24:44;101785.91;;;15.09;100.00
37610;BME280;23457;51.966;8.230;2022-07-12T04:27:10;101773.78;;;15.14;100.00
37610;BME280;23457;51.966;8.230;2022-07-12T04:29:37;101784.47;;;15.29;100.00
37610;BME280;23457;51.966;8.230;2022-07-12T04:32:03;101783.44;;;15.21;100.00
37610;BME280;23457;51.966;8.230;2022-07-12T04:34:30;101798.56;;;15.39;100.00
37610;BME280;23457;51.966;8.230;2022-07-12T04:36:56;101797.72;;;15.41;100.00
37610;BME280;23457;51.966;8.230;2022-07-12T04:39:23;101789.88;;;15.43;100.00
37610;BME280;23457;51.966;8.230;2022-07-12T04:41:50;101801.25;;;15.44;100.00
37610;BME280;23457;51.966;8.230;2022-07-12T04:44:16;101798.63;;;15.47;100.00
37610;BME280;23457;51.966;8.230;2022-07-12T04:46:43;101802.16;;;15.49;100.00
37610;BME280;23457;51.966;8.230;2022-07-12T04:49:09;101799.00;;;15.09;100.00
37610;BME280;23457;51.966;8.230;2022-07-12T04:51:36;101785.34;;;15.30;100.00
37610;BME280;23457;51.966;8.230;2022-07-12T04:54:03;101796.00;;;15.44;100.00
37610;BME280;23457;51.966;8.230;2022-07-12T04:56:29;101803.97;;;15.53;100.00
37610;BME280;23457;51.966;8.230;2022-07-12T04:58:56;101799.38;;;15.35;100.00
37610;BME280;23457;51.966;8.230;2022-07-12T05:01:28;101801.06;;;15.33;100.00
37610;BME280;23457;51.966;8.230;2022-07-12T05:03:55;101814.34;;;15.47;100.00
37610;BME280;23457;51.966;8.230;2022-07-12T05:06:21;101808.44;;;15.57;100.00
37610;BME280;23457;51.966;8.230;2022-07-12T05:08:49;101821.69;;;15.70;100.00
37610;BME280;23457;51.966;8.230;2022-07-12T05:11:15;101819.94;;;15.68;100.00
37610;BME280;23457;51.966;8.230;2022-07-12T05:13:42;101832.34;;;15.84;100.00
37610;BME280;23457;51.966;8.230;2022-07-12T05:16:08;101835.13;;;15.95;100.00
37610;BME280;23457;51.966;8.230;2022-07-12T05:18:35;101829.72;;;15.84;100.00
37610;BME280;23457;51.966;8.230;2022-07-12T05:21:02;101828.13;;;15.95;100.00
37610;BME280;23457;51.966;8.230;2022-07-12T05:23:30;101828.38;;;16.17;100.00
37610;BME280;23457;51.966;8.230;2022-07-12T05:25:56;101839.78;;;16.23;100.00
37610;BME280;23457;51.966;8.230;2022-07-12T05:28:23;101840.06;;;16.51;100.00
37610;BME280;23457;51.966;8.230;2022-07-12T05:30:49;101837.47;;;16.52;100.00
37610;BME280;23457;51.966;8.230;2022-07-12T05:33:16;101835.69;;;16.51;100.00
37610;BME280;23457;51.966;8.230;2022-07-12T05:35:43;101836.81;;;16.76;100.00
37610;BME280;23457;51.966;8.230;2022-07-12T05:38:09;101844.69;;;16.74;100.00
37610;BME280;23457;51.966;8.230;2022-07-12T05:40:36;101848.28;;;16.84;100.00
37610;BME280;23457;51.966;8.230;2022-07-12T05:43:02;101850.06;;;16.90;100.00
37610;BME280;23457;51.966;8.230;2022-07-12T05:45:29;101852.72;;;16.93;100.00
37610;BME280;23457;51.966;8.230;2022-07-12T05:47:55;101839.63;;;16.97;100.00
37610;BME280;23457;51.966;8.230;2022-07-12T05:50:22;101854.38;;;16.84;100.00
37610;BME280;23457;51.966;8.230;2022-07-12T05:52:48;101846.44;;;16.75;100.00
37610;BME280;23457;51.966;8.230;2022-07-12T05:55:33;101835.19;;;16.89;100.00
37610;BME280;23457;51.966;8.230;2022-07-12T05:58:00;101835.22;;;16.92;100.00
37610;BME280;23457;51.966;8.230;2022-07-12T06:00:26;101833.34;;;16.78;100.00
37610;BME280;23457;51.966;8.230;2022-07-12T06:02:53;101832.72;;;17.08;100.00
37610;BME280;23457;51.966;8.230;2022-07-12T06:05:20;101832.81;;;17.22;100.00
37610;BME280;23457;51.966;8.230;2022-07-12T06:07:47;101834.63;;;17.37;100.00
37610;BME280;23457;51.966;8.230;2022-07-12T06:10:13;101835.66;;;17.59;100.00
37610;BME280;23457;51.966;8.230;2022-07-12T06:12:40;101838.41;;;17.80;100.00
37610;BME280;23457;51.966;8.230;2022-07-12T06:15:06;101839.31;;;17.85;100.00
37610;BME280;23457;51.966;8.230;2022-07-12T06:17:34;101834.84;;;17.73;100.00
37610;BME280;23457;51.966;8.230;2022-07-12T06:20:01;101841.09;;;17.95;100.00
37610;BME280;23457;51.966;8.230;2022-07-12T06:22:28;101842.84;;;18.01;100.00
37610;BME280;23457;51.966;8.230;2022-07-12T06:24:54;101846.25;;;17.77;100.00
37610;BME280;23457;51.966;8.230;2022-07-12T06:27:21;101838.44;;;17.94;100.00
37610;BME280;23457;51.966;8.230;2022-07-12T06:29:47;101836.69;;;17.94;100.00
37610;BME280;23457;51.966;8.230;2022-07-12T06:32:17;101846.25;;;17.77;100.00
37610;BME280;23457;51.966;8.230;2022-07-12T06:34:44;101842.81;;;17.88;100.00
37610;BME280;23457;51.966;8.230;2022-07-12T06:37:11;101843.72;;;18.03;100.00
37610;BME280;23457;51.966;8.230;2022-07-12T06:39:39;101848.19;;;18.30;100.00
37610;BME280;23457;51.966;8.230;2022-07-12T06:42:06;101844.69;;;18.40;100.00
37610;BME280;23457;51.966;8.230;2022-07-12T06:44:34;101842.16;;;18.61;100.00
37610;BME280;23457;51.966;8.230;2022-07-12T06:47:01;101840.38;;;18.68;99.68
37610;BME280;23457;51.966;8.230;2022-07-12T06:49:27;101843.00;;;18.63;99.67
37610;BME280;23457;51.966;8.230;2022-07-12T06:51:54;101843.00;;;18.75;100.00
37610;BME280;23457;51.966;8.230;2022-07-12T06:54:20;101841.25;;;18.68;98.39
37610;BME280;23457;51.966;8.230;2022-07-12T06:56:47;101842.13;;;18.76;98.76
37610;BME280;23457;51.966;8.230;2022-07-12T06:59:13;101851.78;;;18.76;99.08
37610;BME280;23457;51.966;8.230;2022-07-12T07:01:42;101837.75;;;18.72;97.70
37610;BME280;23457;51.966;8.230;2022-07-12T07:04:09;101843.00;;;19.03;95.88
37610;BME280;23457;51.966;8.230;2022-07-12T07:06:36;101846.53;;;18.95;96.24
37610;BME280;23457;51.966;8.230;2022-07-12T07:09:02;101843.91;;;19.12;95.82
37610;BME280;23457;51.966;8.230;2022-07-12T07:11:34;101849.13;;;19.24;94.32
37610;BME280;23457;51.966;8.230;2022-07-12T07:14:01;101850.03;;;19.25;94.33
37610;BME280;23457;51.966;8.230;2022-07-12T07:16:27;101855.25;;;19.34;92.88
37610;BME280;23457;51.966;8.230;2022-07-12T07:18:54;101849.97;;;19.46;91.01
37610;BME280;23457;51.966;8.230;2022-07-12T07:21:21;101871.00;;;19.71;89.83
37610;BME280;23457;51.966;8.230;2022-07-12T07:23:48;101855.22;;;19.43;90.29
37610;BME280;23457;51.966;8.230;2022-07-12T07:26:14;101862.28;;;19.32;91.34
37610;BME280;23457;51.966;8.230;2022-07-12T07:28:41;101871.06;;;19.55;88.78
37610;BME280;23457;51.966;8.230;2022-07-12T07:31:26;101864.00;;;19.63;89.84
37610;BME280;23457;51.966;8.230;2022-07-12T07:33:53;101863.09;;;19.69;88.79
37610;BME280;23457;51.966;8.230;2022-07-12T07:36:19;101857.88;;;19.58;89.88
37610;BME280;23457;51.966;8.230;2022-07-12T07:38:46;101854.28;;;19.79;90.65
37610;BME280;23457;51.966;8.230;2022-07-12T07:41:12;101855.06;;;20.01;90.18
37610;BME280;23457;51.966;8.230;2022-07-12T07:43:39;101861.94;;;20.29;86.62
37610;BME280;23457;51.966;8.230;2022-07-12T07:46:05;101854.03;;;20.37;86.46
37610;BME280;23457;51.966;8.230;2022-07-12T07:48:32;101864.53;;;20.42;84.71
37610;BME280;23457;51.966;8.230;2022-07-12T07:50:58;101850.41;;;20.52;85.05
37610;BME280;23457;51.966;8.230;2022-07-12T07:53:25;101850.16;;;20.81;82.93
37610;BME280;23457;51.966;8.230;2022-07-12T07:55:52;101847.59;;;20.70;83.25
37610;BME280;23457;51.966;8.230;2022-07-12T07:58:18;101842.13;;;20.91;82.30
37610;BME280;23457;51.966;8.230;2022-07-12T08:00:49;101834.28;;;20.82;83.02
37610;BME280;23457;51.966;8.230;2022-07-12T08:03:16;101837.63;;;21.04;81.00
37610;BME280;23457;51.966;8.230;2022-07-12T08:05:43;101833.88;;;21.28;81.76
37610;BME280;23457;51.966;8.230;2022-07-12T08:08:09;101829.63;;;21.12;79.85
37610;BME280;23457;51.966;8.230;2022-07-12T08:10:36;101843.84;;;21.01;79.65
37610;BME280;23457;51.966;8.230;2022-07-12T08:13:03;101838.47;;;21.07;80.23
37610;BME280;23457;51.966;8.230;2022-07-12T08:15:30;101843.88;;;20.95;81.75
37610;BME280;23457;51.966;8.230;2022-07-12T08:17:57;101826.16;;;21.06;81.52
37610;BME280;23457;51.966;8.230;2022-07-12T08:20:25;101831.56;;;20.94;81.79
37610;BME280;23457;51.966;8.230;2022-07-12T08:23:12;101823.56;;;21.00;82.11
37610;BME280;23457;51.966;8.230;2022-07-12T08:25:39;101823.38;;;21.17;81.12
37610;BME280;23457;51.966;8.230;2022-07-12T08:28:05;101823.25;;;21.34;80.81
37610;BME280;23457;51.966;8.230;2022-07-12T08:30:32;101827.38;;;21.59;78.17
37610;BME280;23457;51.966;8.230;2022-07-12T08:32:59;101831.81;;;21.56;79.21
37610;BME280;23457;51.966;8.230;2022-07-12T08:35:26;101843.03;;;21.77;80.28
37610;BME280;23457;51.966;8.230;2022-07-12T08:37:53;101834.38;;;21.63;79.50
37610;BME280;23457;51.966;8.230;2022-07-12T08:40:21;101834.31;;;21.66;80.59
37610;BME280;23457;51.966;8.230;2022-07-12T08:42:47;101841.28;;;21.78;78.55
37610;BME280;23457;51.966;8.230;2022-07-12T08:45:14;101839.59;;;21.69;79.21
37610;BME280;23457;51.966;8.230;2022-07-12T08:47:41;101845.84;;;21.62;77.95
37610;BME280;23457;51.966;8.230;2022-07-12T08:50:19;101850.06;;;21.78;76.90
37610;BME280;23457;51.966;8.230;2022-07-12T08:52:48;101841.16;;;21.86;77.51
37610;BME280;23457;51.966;8.230;2022-07-12T08:55:34;101850.25;;;21.65;77.52
37610;BME280;23457;51.966;8.230;2022-07-12T08:58:02;101846.59;;;21.73;77.88
37610;BME280;23457;51.966;8.230;2022-07-12T09:00:30;101842.91;;;21.88;79.09
37610;BME280;23457;51.966;8.230;2022-07-12T09:03:00;101837.31;;;22.11;78.44
37610;BME280;23457;51.966;8.230;2022-07-12T09:05:32;101842.25;;;22.37;74.90
37610;BME280;23457;51.966;8.230;2022-07-12T09:08:06;101847.03;;;22.69;73.54
37610;BME280;23457;51.966;8.230;2022-07-12T09:13:19;101852.09;;;22.27;72.01
37610;BME280;23457;51.966;8.230;2022-07-12T09:15:46;101853.97;;;22.19;72.94
37610;BME280;23457;51.966;8.230;2022-07-12T09:18:17;101862.72;;;22.26;72.29
37610;BME280;23457;51.966;8.230;2022-07-12T09:20:53;101856.13;;;22.54;73.30
37610;BME280;23457;51.966;8.230;2022-07-12T09:23:20;101850.53;;;22.71;74.66
37610;BME280;23457;51.966;8.230;2022-07-12T09:25:47;101855.53;;;22.92;71.02
37610;BME280;23457;51.966;8.230;2022-07-12T09:28:15;101851.25;;;23.33;71.12
37610;BME280;23457;51.966;8.230;2022-07-12T09:30:50;101856.38;;;23.42;72.23
37610;BME280;23457;51.966;8.230;2022-07-12T09:33:20;101850.75;;;23.60;68.04
37610;BME280;23457;51.966;8.230;2022-07-12T09:36:06;101846.72;;;23.82;72.05
37610;BME280;23457;51.966;8.230;2022-07-12T09:38:37;101848.56;;;23.80;66.65
37610;BME280;23457;51.966;8.230;2022-07-12T09:41:07;101843.88;;;23.93;69.44
37610;BME280;23457;51.966;8.230;2022-07-12T09:43:34;101839.81;;;23.75;72.10
37610;BME280;23457;51.966;8.230;2022-07-12T09:46:01;101836.97;;;23.84;69.87
37610;BME280;23457;51.966;8.230;2022-07-12T09:48:28;101841.50;;;23.79;65.81
37610;BME280;23457;51.966;8.230;2022-07-12T09:50:57;101834.78;;;24.05;70.88
37610;BME280;23457;51.966;8.230;2022-07-12T09:53:31;101827.97;;;23.91;62.88
37610;BME280;23457;51.966;8.230;2022-07-12T09:56:05;101803.19;;;23.92;65.69
37610;BME280;23457;51.966;8.230;2022-07-12T10:01:18;101824.16;;;24.43;63.59
37610;BME280;23457;51.966;8.230;2022-07-12T10:03:45;101829.69;;;24.34;61.18
37610;BME280;23457;51.966;8.230;2022-07-12T10:06:25;101829.25;;;24.52;62.14
37610;BME280;23457;51.966;8.230;2022-07-12T10:09:00;101842.06;;;24.35;65.09
37610;BME280;23457;51.966;8.230;2022-07-12T10:11:27;101834.56;;;24.52;66.26
37610;BME280;23457;51.966;8.230;2022-07-12T10:14:14;101830.13;;;24.53;61.23
37610;BME280;23457;51.966;8.230;2022-07-12T10:16:43;101835.78;;;24.75;58.32
37610;BME280;23457;51.966;8.230;2022-07-12T10:19:21;101816.91;;;24.85;59.99
37610;BME280;23457;51.966;8.230;2022-07-12T10:21:50;101826.44;;;25.28;56.65
37610;BME280;23457;51.966;8.230;2022-07-12T10:27:00;101818.16;;;25.39;55.01
37610;BME280;23457;51.966;8.230;2022-07-12T10:29:48;101810.69;;;24.85;56.39
37610;BME280;23457;51.966;8.230;2022-07-12T10:32:26;101810.00;;;25.12;54.97
37610;BME280;23457;51.966;8.230;2022-07-12T10:35:03;101813.25;;;25.85;53.81
37610;BME280;23457;51.966;8.230;2022-07-12T10:37:33;101809.00;;;25.80;53.00
37610;BME280;23457;51.966;8.230;2022-07-12T10:43:16;101798.56;;;26.57;53.11
37610;BME280;23457;51.966;8.230;2022-07-12T10:45:44;101803.56;;;27.19;55.63
37610;BME280;23457;51.966;8.230;2022-07-12T10:53:36;101795.00;;;25.73;51.50
37610;BME280;23457;51.966;8.230;2022-07-12T10:56:13;101797.28;;;26.43;54.08
37610;BME280;23457;51.966;8.230;2022-07-12T10:58:58;101791.47;;;27.09;49.05
37610;BME280;23457;51.966;8.230;2022-07-12T11:01:29;101788.00;;;26.54;49.99
37610;BME280;23457;51.966;8.230;2022-07-12T11:06:29;101784.88;;;26.94;48.77
37610;BME280;23457;51.966;8.230;2022-07-12T11:09:02;101782.50;;;25.75;51.02
37610;BME280;23457;51.966;8.230;2022-07-12T11:11:30;101776.25;;;26.05;51.09
37610;BME280;23457;51.966;8.230;2022-07-12T11:13:58;101774.69;;;25.98;50.67
37610;BME280;23457;51.966;8.230;2022-07-12T11:16:26;101761.66;;;26.17;50.59
37610;BME280;23457;51.966;8.230;2022-07-12T11:18:53;101764.81;;;27.09;50.71
37610;BME280;23457;51.966;8.230;2022-07-12T11:21:20;101757.78;;;27.53;47.99
37610;BME280;23457;51.966;8.230;2022-07-12T11:23:47;101757.97;;;27.00;54.78
37610;BME280;23457;51.966;8.230;2022-07-12T11:26:15;101760.88;;;27.42;48.45
37610;BME280;23457;51.966;8.230;2022-07-12T11:28:42;101762.91;;;26.86;50.83
37610;BME280;23457;51.966;8.230;2022-07-12T11:31:14;101760.84;;;26.69;48.94
37610;BME280;23457;51.966;8.230;2022-07-12T11:33:44;101751.16;;;26.92;47.83
37610;BME280;23457;51.966;8.230;2022-07-12T11:36:12;101751.75;;;27.73;48.36
37610;BME280;23457;51.966;8.230;2022-07-12T11:38:41;101754.09;;;27.80;46.75
37610;BME280;23457;51.966;8.230;2022-07-12T11:41:11;101751.78;;;27.71;45.88
37610;BME280;23457;51.966;8.230;2022-07-12T11:43:38;101753.16;;;27.35;45.70
37610;BME280;23457;51.966;8.230;2022-07-12T11:46:06;101746.69;;;27.87;47.88
37610;BME280;23457;51.966;8.230;2022-07-12T11:48:35;101755.56;;;28.33;47.54
37610;BME280;23457;51.966;8.230;2022-07-12T11:51:04;101754.41;;;27.73;45.66
37610;BME280;23457;51.966;8.230;2022-07-12T11:53:33;101753.28;;;28.00;49.66
37610;BME280;23457;51.966;8.230;2022-07-12T11:56:01;101757.38;;;28.32;47.37
37610;BME280;23457;51.966;8.230;2022-07-12T11:58:28;101758.31;;;28.73;44.32
37610;BME280;23457;51.966;8.230;2022-07-12T12:00:56;101743.66;;;28.62;47.00
37610;BME280;23457;51.966;8.230;2022-07-12T12:03:23;101742.47;;;29.09;45.08
37610;BME280;23457;51.966;8.230;2022-07-12T12:05:55;101744.19;;;28.90;43.65
37610;BME280;23457;51.966;8.230;2022-07-12T12:08:22;101749.59;;;28.68;46.56
37610;BME280;23457;51.966;8.230;2022-07-12T12:10:58;101749.09;;;28.80;46.06
37610;BME280;23457;51.966;8.230;2022-07-12T12:13:27;101742.78;;;29.02;42.61
37610;BME280;23457;51.966;8.230;2022-07-12T12:15:59;101741.03;;;28.60;46.08
37610;BME280;23457;51.966;8.230;2022-07-12T12:18:35;101746.56;;;28.76;42.96
37610;BME280;23457;51.966;8.230;2022-07-12T12:21:04;101750.75;;;28.41;42.92
37610;BME280;23457;51.966;8.230;2022-07-12T12:23:32;101746.03;;;27.10;45.21
37610;BME280;23457;51.966;8.230;2022-07-12T12:28:46;101728.22;;;27.11;47.57
37610;BME280;23457;51.966;8.230;2022-07-12T12:31:14;101729.78;;;27.41;44.30
37610;BME280;23457;51.966;8.230;2022-07-12T12:33:47;101735.34;;;27.82;43.31
37610;BME280;23457;51.966;8.230;2022-07-12T12:36:18;101723.91;;;28.00;43.29
37610;BME280;23457;51.966;8.230;2022-07-12T12:41:21;101713.97;;;27.82;44.44
37610;BME280;23457;51.966;8.230;2022-07-12T12:44:00;101709.25;;;28.52;41.95
37610;BME280;23457;51.966;8.230;2022-07-12T12:46:53;101716.53;;;28.29;40.79
37610;BME280;23457;51.966;8.230;2022-07-12T12:49:49;101721.72;;;27.88;41.82
37610;BME280;23457;51.966;8.230;2022-07-12T12:52:24;101700.19;;;28.57;41.21
37610;BME280;23457;51.966;8.230;2022-07-12T12:54:51;101701.13;;;28.96;42.19
37610;BME280;23457;51.966;8.230;2022-07-12T12:57:17;101700.31;;;29.52;43.61
37610;BME280;23457;51.966;8.230;2022-07-12T12:59:44;101711.03;;;29.71;38.79
37610;BME280;23457;51.966;8.230;2022-07-12T13:02:11;101705.09;;;29.64;40.20
37610;BME280;23457;51.966;8.230;2022-07-12T13:04:38;101697.97;;;29.07;38.90
37610;BME280;23457;51.966;8.230;2022-07-12T13:07:06;101700.00;;;29.20;39.89
37610;BME280;23457;51.966;8.230;2022-07-12T13:09:38;101699.19;;;28.79;39.12
37610;BME280;23457;51.966;8.230;2022-07-12T13:12:05;101694.28;;;29.28;39.69
37610;BME280;23457;51.966;8.230;2022-07-12T13:14:32;101702.56;;;28.84;39.04